sensor_id;sensor_type;location;lat;lon;timestamp;P1;durP1;ratioP1;P2;durP2;ratioP2
75189;SDS011;69198;44.694;37.790;2023-06-22T00:00:46;8.80;;;3.43;;
75189;SDS011;69198;44.694;37.790;2023-06-22T00:01:47;11.75;;;3.97;;
75189;SDS011;69198;44.694;37.790;2023-06-22T00:02:48;8.80;;;3.75;;
75189;SDS011;69198;44.694;37.790;2023-06-22T00:03:49;7.47;;;3.40;;
75189;SDS011;69198;44.694;37.790;2023-06-22T00:04:50;9.63;;;3.85;;
75189;SDS011;69198;44.694;37.790;2023-06-22T00:05:51;8.73;;;3.50;;
75189;SDS011;69198;44.694;37.790;2023-06-22T00:06:53;9.80;;;3.50;;
75189;SDS011;69198;44.694;37.790;2023-06-22T00:07:54;8.07;;;3.50;;
75189;SDS011;69198;44.694;37.790;2023-06-22T00:08:55;7.17;;;2.97;;
75189;SDS011;69198;44.694;37.790;2023-06-22T00:09:56;9.80;;;3.22;;
75189;SDS011;69198;44.694;37.790;2023-06-22T00:10:57;9.48;;;3.78;;
75189;SDS011;69198;44.694;37.790;2023-06-22T00:11:58;8.30;;;3.15;;
75189;SDS011;69198;44.694;37.790;2023-06-22T00:12:59;7.82;;;3.08;;
75189;SDS011;69198;44.694;37.790;2023-06-22T00:14:00;8.57;;;3.53;;
75189;SDS011;69198;44.694;37.790;2023-06-22T00:15:01;8.83;;;3.70;;
75189;SDS011;69198;44.694;37.790;2023-06-22T00:16:02;7.73;;;3.40;;
75189;SDS011;69198;44.694;37.790;2023-06-22T00:17:03;7.68;;;3.00;;
75189;SDS011;69198;44.694;37.790;2023-06-22T00:18:04;12.60;;;3.80;;
75189;SDS011;69198;44.694;37.790;2023-06-22T00:19:06;7.88;;;3.53;;
75189;SDS011;69198;44.694;37.790;2023-06-22T00:20:07;8.88;;;3.63;;
75189;SDS011;69198;44.694;37.790;2023-06-22T00:21:10;7.93;;;3.28;;
75189;SDS011;69198;44.694;37.790;2023-06-22T00:22:12;8.73;;;3.95;;
75189;SDS011;69198;44.694;37.790;2023-06-22T00:23:13;10.40;;;4.05;;
75189;SDS011;69198;44.694;37.790;2023-06-22T00:24:16;8.75;;;3.60;;
75189;SDS011;69198;44.694;37.790;2023-06-22T00:25:17;7.87;;;3.60;;
75189;SDS011;69198;44.694;37.790;2023-06-22T00:26:18;10.88;;;4.10;;
75189;SDS011;69198;44.694;37.790;2023-06-22T00:27:20;9.52;;;4.05;;
75189;SDS011;69198;44.694;37.790;2023-06-22T00:28:21;12.55;;;3.90;;
75189;SDS011;69198;44.694;37.790;2023-06-22T00:29:22;8.57;;;3.75;;
75189;SDS011;69198;44.694;37.790;2023-06-22T00:30:23;9.93;;;4.00;;
75189;SDS011;69198;44.694;37.790;2023-06-22T00:31:24;9.48;;;3.58;;
75189;SDS011;69198;44.694;37.790;2023-06-22T00:32:28;10.70;;;3.90;;
75189;SDS011;69198;44.694;37.790;2023-06-22T00:33:29;11.30;;;4.13;;
75189;SDS011;69198;44.694;37.790;2023-06-22T00:34:30;8.60;;;4.00;;
75189;SDS011;69198;44.694;37.790;2023-06-22T00:35:34;9.90;;;4.18;;
75189;SDS011;69198;44.694;37.790;2023-06-22T00:36:35;9.23;;;4.25;;
75189;SDS011;69198;44.694;37.790;2023-06-22T00:37:37;9.65;;;3.90;;
75189;SDS011;69198;44.694;37.790;2023-06-22T00:38:42;7.65;;;3.47;;
75189;SDS011;69198;44.694;37.790;2023-06-22T00:39:43;9.57;;;3.85;;
75189;SDS011;69198;44.694;37.790;2023-06-22T00:40:45;10.80;;;4.35;;
75189;SDS011;69198;44.694;37.790;2023-06-22T00:41:46;9.85;;;3.78;;
75189;SDS011;69198;44.694;37.790;2023-06-22T00:42:47;9.00;;;4.17;;
75189;SDS011;69198;44.694;37.790;2023-06-22T00:43:48;10.00;;;4.38;;
75189;SDS011;69198;44.694;37.790;2023-06-22T00:44:49;9.23;;;3.85;;
75189;SDS011;69198;44.694;37.790;2023-06-22T00:45:51;8.48;;;3.50;;
75189;SDS011;69198;44.694;37.790;2023-06-22T00:46:52;9.52;;;4.10;;
75189;SDS011;69198;44.694;37.790;2023-06-22T00:47:57;11.52;;;3.63;;
75189;SDS011;69198;44.694;37.790;2023-06-22T00:48:58;8.82;;;3.55;;
75189;SDS011;69198;44.694;37.790;2023-06-22T00:50:02;9.88;;;3.78;;
75189;SDS011;69198;44.694;37.790;2023-06-22T00:51:07;10.05;;;4.05;;
75189;SDS011;69198;44.694;37.790;2023-06-22T00:52:08;10.40;;;4.10;;
75189;SDS011;69198;44.694;37.790;2023-06-22T00:53:13;9.20;;;4.05;;
75189;SDS011;69198;44.694;37.790;2023-06-22T00:54:15;9.32;;;3.97;;
75189;SDS011;69198;44.694;37.790;2023-06-22T00:55:15;9.80;;;3.97;;
75189;SDS011;69198;44.694;37.790;2023-06-22T00:56:18;8.13;;;3.80;;
75189;SDS011;69198;44.694;37.790;2023-06-22T00:57:19;8.77;;;3.72;;
75189;SDS011;69198;44.694;37.790;2023-06-22T00:58:21;9.57;;;4.07;;
75189;SDS011;69198;44.694;37.790;2023-06-22T00:59:23;10.30;;;4.10;;
75189;SDS011;69198;44.694;37.790;2023-06-22T01:00:26;9.52;;;3.85;;
75189;SDS011;69198;44.694;37.790;2023-06-22T01:01:27;10.02;;;3.70;;
75189;SDS011;69198;44.694;37.790;2023-06-22T01:02:30;9.30;;;3.90;;
75189;SDS011;69198;44.694;37.790;2023-06-22T01:03:32;9.48;;;3.60;;
75189;SDS011;69198;44.694;37.790;2023-06-22T01:04:37;10.20;;;4.10;;
75189;SDS011;69198;44.694;37.790;2023-06-22T01:05:41;9.35;;;3.60;;
75189;SDS011;69198;44.694;37.790;2023-06-22T01:06:45;9.60;;;4.07;;
75189;SDS011;69198;44.694;37.790;2023-06-22T01:09:28;8.30;;;3.65;;
75189;SDS011;69198;44.694;37.790;2023-06-22T01:11:54;9.02;;;3.53;;
75189;SDS011;69198;44.694;37.790;2023-06-22T01:13:04;12.37;;;4.57;;
75189;SDS011;69198;44.694;37.790;2023-06-22T01:14:20;9.07;;;4.05;;
75189;SDS011;69198;44.694;37.790;2023-06-22T01:15:36;10.00;;;4.72;;
75189;SDS011;69198;44.694;37.790;2023-06-22T01:16:43;10.18;;;4.20;;
75189;SDS011;69198;44.694;37.790;2023-06-22T01:17:45;10.80;;;4.32;;
75189;SDS011;69198;44.694;37.790;2023-06-22T01:18:49;9.93;;;3.90;;
75189;SDS011;69198;44.694;37.790;2023-06-22T01:19:56;9.68;;;4.10;;
75189;SDS011;69198;44.694;37.790;2023-06-22T01:20:59;9.15;;;4.20;;
75189;SDS011;69198;44.694;37.790;2023-06-22T01:22:03;10.48;;;4.30;;
75189;SDS011;69198;44.694;37.790;2023-06-22T01:23:13;8.90;;;4.13;;
75189;SDS011;69198;44.694;37.790;2023-06-22T01:24:33;10.07;;;4.27;;
75189;SDS011;69198;44.694;37.790;2023-06-22T01:28:53;11.18;;;4.43;;
75189;SDS011;69198;44.694;37.790;2023-06-22T01:29:56;9.55;;;4.50;;
75189;SDS011;69198;44.694;37.790;2023-06-22T01:31:01;10.18;;;4.68;;
75189;SDS011;69198;44.694;37.790;2023-06-22T01:32:06;9.90;;;4.30;;
75189;SDS011;69198;44.694;37.790;2023-06-22T01:33:10;9.35;;;4.03;;
75189;SDS011;69198;44.694;37.790;2023-06-22T01:34:13;11.73;;;4.05;;
75189;SDS011;69198;44.694;37.790;2023-06-22T01:35:15;8.98;;;3.83;;
75189;SDS011;69198;44.694;37.790;2023-06-22T01:36:17;10.83;;;4.47;;
75189;SDS011;69198;44.694;37.790;2023-06-22T01:37:21;12.70;;;4.20;;
75189;SDS011;69198;44.694;37.790;2023-06-22T01:38:25;9.18;;;4.60;;
75189;SDS011;69198;44.694;37.790;2023-06-22T01:39:28;8.25;;;4.03;;
75189;SDS011;69198;44.694;37.790;2023-06-22T01:40:31;9.30;;;4.20;;
75189;SDS011;69198;44.694;37.790;2023-06-22T01:41:36;9.73;;;4.35;;
75189;SDS011;69198;44.694;37.790;2023-06-22T01:42:38;9.35;;;4.05;;
75189;SDS011;69198;44.694;37.790;2023-06-22T01:43:41;12.23;;;5.15;;
75189;SDS011;69198;44.694;37.790;2023-06-22T01:44:43;9.43;;;4.35;;
75189;SDS011;69198;44.694;37.790;2023-06-22T01:45:44;9.45;;;4.32;;
75189;SDS011;69198;44.694;37.790;2023-06-22T01:46:46;11.90;;;5.13;;
75189;SDS011;69198;44.694;37.790;2023-06-22T01:47:49;11.38;;;4.28;;
75189;SDS011;69198;44.694;37.790;2023-06-22T01:48:50;9.57;;;4.40;;
75189;SDS011;69198;44.694;37.790;2023-06-22T01:49:51;10.18;;;5.10;;
75189;SDS011;69198;44.694;37.790;2023-06-22T01:50:54;11.32;;;5.07;;
75189;SDS011;69198;44.694;37.790;2023-06-22T01:51:56;11.60;;;5.03;;
75189;SDS011;69198;44.694;37.790;2023-06-22T01:52:57;10.02;;;4.35;;
75189;SDS011;69198;44.694;37.790;2023-06-22T01:54:01;9.32;;;4.40;;
75189;SDS011;69198;44.694;37.790;2023-06-22T01:55:02;12.23;;;5.00;;
75189;SDS011;69198;44.694;37.790;2023-06-22T01:56:05;10.13;;;4.68;;
75189;SDS011;69198;44.694;37.790;2023-06-22T01:57:08;9.90;;;4.77;;
75189;SDS011;69198;44.694;37.790;2023-06-22T01:58:11;16.00;;;4.53;;
75189;SDS011;69198;44.694;37.790;2023-06-22T02:00:37;10.63;;;4.70;;
75189;SDS011;69198;44.694;37.790;2023-06-22T02:01:44;11.02;;;4.72;;
75189;SDS011;69198;44.694;37.790;2023-06-22T02:03:01;13.55;;;5.05;;
75189;SDS011;69198;44.694;37.790;2023-06-22T02:04:09;10.65;;;4.50;;
75189;SDS011;69198;44.694;37.790;2023-06-22T02:05:15;12.45;;;4.95;;
75189;SDS011;69198;44.694;37.790;2023-06-22T02:06:27;11.25;;;5.00;;
75189;SDS011;69198;44.694;37.790;2023-06-22T02:07:38;12.88;;;5.15;;
75189;SDS011;69198;44.694;37.790;2023-06-22T02:08:47;10.40;;;4.97;;
75189;SDS011;69198;44.694;37.790;2023-06-22T02:09:51;11.68;;;4.80;;
75189;SDS011;69198;44.694;37.790;2023-06-22T02:10:55;12.75;;;5.32;;
75189;SDS011;69198;44.694;37.790;2023-06-22T02:11:58;11.07;;;5.47;;
75189;SDS011;69198;44.694;37.790;2023-06-22T02:13:03;11.85;;;4.60;;
75189;SDS011;69198;44.694;37.790;2023-06-22T02:14:07;12.15;;;4.97;;
75189;SDS011;69198;44.694;37.790;2023-06-22T02:15:09;11.07;;;5.00;;
75189;SDS011;69198;44.694;37.790;2023-06-22T02:16:13;12.13;;;5.75;;
75189;SDS011;69198;44.694;37.790;2023-06-22T02:17:16;12.45;;;5.00;;
75189;SDS011;69198;44.694;37.790;2023-06-22T02:18:18;10.35;;;4.60;;
75189;SDS011;69198;44.694;37.790;2023-06-22T02:19:23;10.90;;;5.13;;
75189;SDS011;69198;44.694;37.790;2023-06-22T02:20:27;10.60;;;5.00;;
75189;SDS011;69198;44.694;37.790;2023-06-22T02:21:28;10.55;;;5.40;;
75189;SDS011;69198;44.694;37.790;2023-06-22T02:22:29;10.93;;;4.80;;
75189;SDS011;69198;44.694;37.790;2023-06-22T02:23:30;12.55;;;5.00;;
75189;SDS011;69198;44.694;37.790;2023-06-22T02:24:35;10.30;;;4.88;;
75189;SDS011;69198;44.694;37.790;2023-06-22T02:25:36;13.13;;;5.03;;
75189;SDS011;69198;44.694;37.790;2023-06-22T02:26:37;13.73;;;4.72;;
75189;SDS011;69198;44.694;37.790;2023-06-22T02:27:42;11.17;;;5.33;;
75189;SDS011;69198;44.694;37.790;2023-06-22T02:28:43;10.73;;;4.85;;
75189;SDS011;69198;44.694;37.790;2023-06-22T02:29:46;11.20;;;4.93;;
75189;SDS011;69198;44.694;37.790;2023-06-22T02:30:47;11.40;;;5.05;;
75189;SDS011;69198;44.694;37.790;2023-06-22T02:31:48;9.65;;;4.88;;
75189;SDS011;69198;44.694;37.790;2023-06-22T02:32:49;11.15;;;4.95;;
75189;SDS011;69198;44.694;37.790;2023-06-22T02:33:59;11.80;;;4.93;;
75189;SDS011;69198;44.694;37.790;2023-06-22T02:35:00;11.32;;;5.40;;
75189;SDS011;69198;44.694;37.790;2023-06-22T02:36:04;11.02;;;5.35;;
75189;SDS011;69198;44.694;37.790;2023-06-22T02:37:09;11.70;;;5.47;;
75189;SDS011;69198;44.694;37.790;2023-06-22T02:38:14;10.75;;;5.55;;
75189;SDS011;69198;44.694;37.790;2023-06-22T02:39:16;11.73;;;5.32;;
75189;SDS011;69198;44.694;37.790;2023-06-22T02:40:23;11.25;;;4.93;;
75189;SDS011;69198;44.694;37.790;2023-06-22T02:41:24;13.07;;;5.05;;
75189;SDS011;69198;44.694;37.790;2023-06-22T02:42:25;12.68;;;4.80;;
75189;SDS011;69198;44.694;37.790;2023-06-22T02:43:26;11.50;;;5.35;;
75189;SDS011;69198;44.694;37.790;2023-06-22T02:44:27;11.07;;;4.82;;
75189;SDS011;69198;44.694;37.790;2023-06-22T02:45:28;11.17;;;5.00;;
75189;SDS011;69198;44.694;37.790;2023-06-22T02:46:29;11.55;;;5.15;;
75189;SDS011;69198;44.694;37.790;2023-06-22T02:47:30;12.18;;;5.20;;
75189;SDS011;69198;44.694;37.790;2023-06-22T02:48:32;9.73;;;4.63;;
75189;SDS011;69198;44.694;37.790;2023-06-22T02:49:33;11.38;;;4.70;;
75189;SDS011;69198;44.694;37.790;2023-06-22T02:50:34;11.15;;;4.97;;
75189;SDS011;69198;44.694;37.790;2023-06-22T02:51:37;12.60;;;4.70;;
75189;SDS011;69198;44.694;37.790;2023-06-22T02:52:41;11.82;;;5.05;;
75189;SDS011;69198;44.694;37.790;2023-06-22T02:53:43;11.70;;;4.57;;
75189;SDS011;69198;44.694;37.790;2023-06-22T02:54:47;11.07;;;5.40;;
75189;SDS011;69198;44.694;37.790;2023-06-22T02:55:49;13.23;;;5.07;;
75189;SDS011;69198;44.694;37.790;2023-06-22T02:56:50;10.23;;;4.57;;
75189;SDS011;69198;44.694;37.790;2023-06-22T02:57:52;10.65;;;4.90;;
75189;SDS011;69198;44.694;37.790;2023-06-22T02:58:54;14.85;;;4.75;;
75189;SDS011;69198;44.694;37.790;2023-06-22T03:00:02;13.07;;;5.00;;
75189;SDS011;69198;44.694;37.790;2023-06-22T03:01:17;11.52;;;4.80;;
75189;SDS011;69198;44.694;37.790;2023-06-22T03:02:24;11.45;;;4.97;;
75189;SDS011;69198;44.694;37.790;2023-06-22T03:03:27;11.70;;;5.10;;
75189;SDS011;69198;44.694;37.790;2023-06-22T03:04:27;10.95;;;5.32;;
75189;SDS011;69198;44.694;37.790;2023-06-22T03:05:29;13.40;;;5.03;;
75189;SDS011;69198;44.694;37.790;2023-06-22T03:06:33;11.75;;;5.03;;
75189;SDS011;69198;44.694;37.790;2023-06-22T03:07:34;11.38;;;5.60;;
75189;SDS011;69198;44.694;37.790;2023-06-22T03:08:35;11.77;;;5.10;;
75189;SDS011;69198;44.694;37.790;2023-06-22T03:09:36;13.52;;;5.38;;
75189;SDS011;69198;44.694;37.790;2023-06-22T03:10:38;10.48;;;5.07;;
75189;SDS011;69198;44.694;37.790;2023-06-22T03:11:39;10.00;;;5.15;;
75189;SDS011;69198;44.694;37.790;2023-06-22T03:12:40;10.68;;;4.80;;
75189;SDS011;69198;44.694;37.790;2023-06-22T03:13:42;11.15;;;4.95;;
75189;SDS011;69198;44.694;37.790;2023-06-22T03:14:44;11.80;;;5.07;;
75189;SDS011;69198;44.694;37.790;2023-06-22T03:15:45;11.73;;;5.43;;
75189;SDS011;69198;44.694;37.790;2023-06-22T03:16:46;10.95;;;5.13;;
75189;SDS011;69198;44.694;37.790;2023-06-22T03:17:47;12.50;;;5.32;;
75189;SDS011;69198;44.694;37.790;2023-06-22T03:18:48;12.57;;;5.45;;
75189;SDS011;69198;44.694;37.790;2023-06-22T03:19:49;12.82;;;5.03;;
75189;SDS011;69198;44.694;37.790;2023-06-22T03:20:50;10.32;;;5.13;;
75189;SDS011;69198;44.694;37.790;2023-06-22T03:21:51;11.80;;;5.28;;
75189;SDS011;69198;44.694;37.790;2023-06-22T03:22:53;9.75;;;5.03;;
75189;SDS011;69198;44.694;37.790;2023-06-22T03:23:54;9.63;;;4.80;;
75189;SDS011;69198;44.694;37.790;2023-06-22T03:24:56;11.80;;;5.00;;
75189;SDS011;69198;44.694;37.790;2023-06-22T03:25:57;12.07;;;4.88;;
75189;SDS011;69198;44.694;37.790;2023-06-22T03:26:57;10.52;;;5.00;;
75189;SDS011;69198;44.694;37.790;2023-06-22T03:27:58;12.63;;;5.03;;
75189;SDS011;69198;44.694;37.790;2023-06-22T03:29:01;10.32;;;4.40;;
75189;SDS011;69198;44.694;37.790;2023-06-22T03:30:04;10.73;;;5.15;;
75189;SDS011;69198;44.694;37.790;2023-06-22T03:31:06;12.38;;;4.95;;
75189;SDS011;69198;44.694;37.790;2023-06-22T03:32:10;12.73;;;4.80;;
75189;SDS011;69198;44.694;37.790;2023-06-22T03:33:11;12.23;;;5.73;;
75189;SDS011;69198;44.694;37.790;2023-06-22T03:34:12;13.73;;;5.13;;
75189;SDS011;69198;44.694;37.790;2023-06-22T03:35:13;12.45;;;5.20;;
75189;SDS011;69198;44.694;37.790;2023-06-22T03:36:15;11.23;;;5.13;;
75189;SDS011;69198;44.694;37.790;2023-06-22T03:37:19;10.60;;;4.82;;
75189;SDS011;69198;44.694;37.790;2023-06-22T03:38:20;9.70;;;4.93;;
75189;SDS011;69198;44.694;37.790;2023-06-22T03:39:22;12.27;;;5.20;;
75189;SDS011;69198;44.694;37.790;2023-06-22T03:40:24;15.60;;;5.10;;
75189;SDS011;69198;44.694;37.790;2023-06-22T03:41:25;10.63;;;4.50;;
75189;SDS011;69198;44.694;37.790;2023-06-22T03:42:26;13.53;;;4.77;;
75189;SDS011;69198;44.694;37.790;2023-06-22T03:43:27;11.18;;;4.90;;
75189;SDS011;69198;44.694;37.790;2023-06-22T03:44:30;12.73;;;5.25;;
75189;SDS011;69198;44.694;37.790;2023-06-22T03:45:32;10.60;;;4.53;;
75189;SDS011;69198;44.694;37.790;2023-06-22T03:46:33;10.95;;;5.28;;
75189;SDS011;69198;44.694;37.790;2023-06-22T03:47:34;11.02;;;4.70;;
75189;SDS011;69198;44.694;37.790;2023-06-22T03:48:35;10.85;;;5.00;;
75189;SDS011;69198;44.694;37.790;2023-06-22T03:49:37;10.38;;;5.30;;
75189;SDS011;69198;44.694;37.790;2023-06-22T03:50:38;10.35;;;5.13;;
75189;SDS011;69198;44.694;37.790;2023-06-22T03:51:39;15.80;;;5.38;;
75189;SDS011;69198;44.694;37.790;2023-06-22T03:52:40;9.53;;;5.53;;
75189;SDS011;69198;44.694;37.790;2023-06-22T03:53:41;11.07;;;5.13;;
75189;SDS011;69198;44.694;37.790;2023-06-22T03:54:43;10.60;;;5.03;;
75189;SDS011;69198;44.694;37.790;2023-06-22T03:55:48;11.55;;;6.07;;
75189;SDS011;69198;44.694;37.790;2023-06-22T03:56:53;11.98;;;4.50;;
75189;SDS011;69198;44.694;37.790;2023-06-22T03:57:54;11.00;;;5.20;;
75189;SDS011;69198;44.694;37.790;2023-06-22T03:58:57;11.82;;;5.00;;
75189;SDS011;69198;44.694;37.790;2023-06-22T03:59:58;10.82;;;4.80;;
75189;SDS011;69198;44.694;37.790;2023-06-22T04:01:12;13.57;;;5.05;;
75189;SDS011;69198;44.694;37.790;2023-06-22T04:02:13;14.27;;;5.33;;
75189;SDS011;69198;44.694;37.790;2023-06-22T04:03:14;11.20;;;5.30;;
75189;SDS011;69198;44.694;37.790;2023-06-22T04:04:17;12.25;;;5.50;;
75189;SDS011;69198;44.694;37.790;2023-06-22T04:05:18;10.30;;;5.30;;
75189;SDS011;69198;44.694;37.790;2023-06-22T04:06:19;9.95;;;5.00;;
75189;SDS011;69198;44.694;37.790;2023-06-22T04:07:20;11.07;;;5.60;;
75189;SDS011;69198;44.694;37.790;2023-06-22T04:08:21;10.93;;;5.35;;
75189;SDS011;69198;44.694;37.790;2023-06-22T04:09:22;10.73;;;5.03;;
75189;SDS011;69198;44.694;37.790;2023-06-22T04:10:23;11.02;;;5.60;;
75189;SDS011;69198;44.694;37.790;2023-06-22T04:11:24;13.27;;;5.50;;
75189;SDS011;69198;44.694;37.790;2023-06-22T04:12:25;11.25;;;5.15;;
75189;SDS011;69198;44.694;37.790;2023-06-22T04:13:26;13.40;;;5.20;;
75189;SDS011;69198;44.694;37.790;2023-06-22T04:14:27;11.18;;;4.93;;
75189;SDS011;69198;44.694;37.790;2023-06-22T04:15:28;10.15;;;5.03;;
75189;SDS011;69198;44.694;37.790;2023-06-22T04:16:29;11.98;;;5.65;;
75189;SDS011;69198;44.694;37.790;2023-06-22T04:17:30;11.20;;;5.15;;
75189;SDS011;69198;44.694;37.790;2023-06-22T04:18:31;10.47;;;4.80;;
75189;SDS011;69198;44.694;37.790;2023-06-22T04:19:32;11.63;;;4.90;;
75189;SDS011;69198;44.694;37.790;2023-06-22T04:20:33;10.05;;;5.60;;
75189;SDS011;69198;44.694;37.790;2023-06-22T04:21:34;10.68;;;5.22;;
75189;SDS011;69198;44.694;37.790;2023-06-22T04:22:35;11.88;;;5.50;;
75189;SDS011;69198;44.694;37.790;2023-06-22T04:23:36;10.20;;;5.43;;
75189;SDS011;69198;44.694;37.790;2023-06-22T04:24:37;12.27;;;5.50;;
75189;SDS011;69198;44.694;37.790;2023-06-22T04:25:39;10.48;;;5.43;;
75189;SDS011;69198;44.694;37.790;2023-06-22T04:26:40;10.13;;;4.80;;
75189;SDS011;69198;44.694;37.790;2023-06-22T04:27:42;10.98;;;5.00;;
75189;SDS011;69198;44.694;37.790;2023-06-22T04:28:43;12.70;;;5.32;;
75189;SDS011;69198;44.694;37.790;2023-06-22T04:29:51;14.38;;;5.40;;
75189;SDS011;69198;44.694;37.790;2023-06-22T04:30:52;13.30;;;5.38;;
75189;SDS011;69198;44.694;37.790;2023-06-22T04:31:58;11.85;;;4.95;;
75189;SDS011;69198;44.694;37.790;2023-06-22T04:33:05;10.50;;;5.07;;
75189;SDS011;69198;44.694;37.790;2023-06-22T04:34:06;10.68;;;4.95;;
75189;SDS011;69198;44.694;37.790;2023-06-22T04:35:08;11.68;;;5.13;;
75189;SDS011;69198;44.694;37.790;2023-06-22T04:36:09;10.03;;;5.20;;
75189;SDS011;69198;44.694;37.790;2023-06-22T04:37:13;12.35;;;5.60;;
75189;SDS011;69198;44.694;37.790;2023-06-22T04:38:15;9.52;;;5.00;;
75189;SDS011;69198;44.694;37.790;2023-06-22T04:39:16;12.95;;;4.82;;
75189;SDS011;69198;44.694;37.790;2023-06-22T04:40:19;12.05;;;5.10;;
75189;SDS011;69198;44.694;37.790;2023-06-22T04:41:20;12.02;;;5.20;;
75189;SDS011;69198;44.694;37.790;2023-06-22T04:42:28;10.55;;;5.22;;
75189;SDS011;69198;44.694;37.790;2023-06-22T04:43:29;9.55;;;4.88;;
75189;SDS011;69198;44.694;37.790;2023-06-22T04:44:30;11.07;;;5.35;;
75189;SDS011;69198;44.694;37.790;2023-06-22T04:45:32;8.70;;;4.38;;
75189;SDS011;69198;44.694;37.790;2023-06-22T04:46:33;9.90;;;5.17;;
75189;SDS011;69198;44.694;37.790;2023-06-22T04:47:38;13.48;;;5.28;;
75189;SDS011;69198;44.694;37.790;2023-06-22T04:48:39;10.02;;;4.88;;
75189;SDS011;69198;44.694;37.790;2023-06-22T04:49:40;8.63;;;5.00;;
75189;SDS011;69198;44.694;37.790;2023-06-22T04:50:43;9.73;;;4.72;;
75189;SDS011;69198;44.694;37.790;2023-06-22T04:51:44;11.35;;;5.35;;
75189;SDS011;69198;44.694;37.790;2023-06-22T04:52:45;11.32;;;5.18;;
75189;SDS011;69198;44.694;37.790;2023-06-22T04:53:46;9.20;;;4.55;;
75189;SDS011;69198;44.694;37.790;2023-06-22T04:54:47;11.27;;;4.63;;
75189;SDS011;69198;44.694;37.790;2023-06-22T04:55:55;9.77;;;4.77;;
75189;SDS011;69198;44.694;37.790;2023-06-22T04:56:56;10.82;;;5.03;;
75189;SDS011;69198;44.694;37.790;2023-06-22T04:57:57;9.65;;;5.10;;
75189;SDS011;69198;44.694;37.790;2023-06-22T04:59:04;10.23;;;5.43;;
75189;SDS011;69198;44.694;37.790;2023-06-22T05:00:05;11.15;;;5.53;;
75189;SDS011;69198;44.694;37.790;2023-06-22T05:01:17;12.48;;;5.47;;
75189;SDS011;69198;44.694;37.790;2023-06-22T05:02:19;11.18;;;4.85;;
75189;SDS011;69198;44.694;37.790;2023-06-22T05:03:20;9.05;;;4.85;;
75189;SDS011;69198;44.694;37.790;2023-06-22T05:04:21;9.47;;;4.50;;
75189;SDS011;69198;44.694;37.790;2023-06-22T05:05:25;10.90;;;5.30;;
75189;SDS011;69198;44.694;37.790;2023-06-22T05:06:26;10.27;;;5.15;;
75189;SDS011;69198;44.694;37.790;2023-06-22T05:07:28;10.40;;;4.63;;
75189;SDS011;69198;44.694;37.790;2023-06-22T05:08:29;11.55;;;5.18;;
75189;SDS011;69198;44.694;37.790;2023-06-22T05:09:30;9.85;;;5.10;;
75189;SDS011;69198;44.694;37.790;2023-06-22T05:10:31;9.48;;;4.95;;
75189;SDS011;69198;44.694;37.790;2023-06-22T05:11:33;10.82;;;5.05;;
75189;SDS011;69198;44.694;37.790;2023-06-22T05:12:34;11.50;;;4.80;;
75189;SDS011;69198;44.694;37.790;2023-06-22T05:13:35;11.63;;;4.70;;
75189;SDS011;69198;44.694;37.790;2023-06-22T05:14:36;9.35;;;4.72;;
75189;SDS011;69198;44.694;37.790;2023-06-22T05:15:37;9.68;;;4.85;;
75189;SDS011;69198;44.694;37.790;2023-06-22T05:16:43;9.23;;;5.30;;
75189;SDS011;69198;44.694;37.790;2023-06-22T05:17:45;9.27;;;4.70;;
75189;SDS011;69198;44.694;37.790;2023-06-22T05:18:46;8.75;;;4.68;;
75189;SDS011;69198;44.694;37.790;2023-06-22T05:19:47;10.35;;;4.80;;
75189;SDS011;69198;44.694;37.790;2023-06-22T05:20:48;9.80;;;4.50;;
75189;SDS011;69198;44.694;37.790;2023-06-22T05:21:49;9.80;;;4.40;;
75189;SDS011;69198;44.694;37.790;2023-06-22T05:22:50;11.67;;;5.80;;
75189;SDS011;69198;44.694;37.790;2023-06-22T05:23:52;10.45;;;4.75;;
75189;SDS011;69198;44.694;37.790;2023-06-22T05:24:54;10.20;;;4.90;;
75189;SDS011;69198;44.694;37.790;2023-06-22T05:25:55;11.13;;;5.03;;
75189;SDS011;69198;44.694;37.790;2023-06-22T05:26:58;10.95;;;4.82;;
75189;SDS011;69198;44.694;37.790;2023-06-22T05:27:59;11.98;;;5.10;;
75189;SDS011;69198;44.694;37.790;2023-06-22T05:29:00;8.75;;;4.47;;
75189;SDS011;69198;44.694;37.790;2023-06-22T05:30:02;10.45;;;5.05;;
75189;SDS011;69198;44.694;37.790;2023-06-22T05:31:04;8.70;;;4.30;;
75189;SDS011;69198;44.694;37.790;2023-06-22T05:32:05;11.15;;;4.70;;
75189;SDS011;69198;44.694;37.790;2023-06-22T05:33:06;9.07;;;4.50;;
75189;SDS011;69198;44.694;37.790;2023-06-22T05:34:07;9.85;;;5.00;;
75189;SDS011;69198;44.694;37.790;2023-06-22T05:35:08;9.43;;;4.20;;
75189;SDS011;69198;44.694;37.790;2023-06-22T05:36:10;9.07;;;4.22;;
75189;SDS011;69198;44.694;37.790;2023-06-22T05:37:11;8.95;;;4.45;;
75189;SDS011;69198;44.694;37.790;2023-06-22T05:38:13;10.02;;;4.25;;
75189;SDS011;69198;44.694;37.790;2023-06-22T05:39:14;9.43;;;4.72;;
75189;SDS011;69198;44.694;37.790;2023-06-22T05:40:15;8.27;;;3.95;;
75189;SDS011;69198;44.694;37.790;2023-06-22T05:41:17;8.33;;;4.40;;
75189;SDS011;69198;44.694;37.790;2023-06-22T05:42:18;11.95;;;4.22;;
75189;SDS011;69198;44.694;37.790;2023-06-22T05:43:19;8.15;;;4.25;;
75189;SDS011;69198;44.694;37.790;2023-06-22T05:44:20;9.15;;;4.20;;
75189;SDS011;69198;44.694;37.790;2023-06-22T05:45:21;8.20;;;3.88;;
75189;SDS011;69198;44.694;37.790;2023-06-22T05:46:22;7.72;;;4.35;;
75189;SDS011;69198;44.694;37.790;2023-06-22T05:47:23;9.52;;;4.50;;
75189;SDS011;69198;44.694;37.790;2023-06-22T05:48:24;9.90;;;4.18;;
75189;SDS011;69198;44.694;37.790;2023-06-22T05:49:25;7.97;;;3.85;;
75189;SDS011;69198;44.694;37.790;2023-06-22T05:50:32;8.43;;;4.50;;
75189;SDS011;69198;44.694;37.790;2023-06-22T05:51:40;8.60;;;4.38;;
75189;SDS011;69198;44.694;37.790;2023-06-22T05:52:44;7.78;;;4.05;;
75189;SDS011;69198;44.694;37.790;2023-06-22T05:54:18;8.23;;;4.15;;
75189;SDS011;69198;44.694;37.790;2023-06-22T05:55:28;9.35;;;4.00;;
75189;SDS011;69198;44.694;37.790;2023-06-22T05:56:29;8.88;;;4.45;;
75189;SDS011;69198;44.694;37.790;2023-06-22T05:57:30;8.38;;;4.50;;
75189;SDS011;69198;44.694;37.790;2023-06-22T05:58:31;9.00;;;4.10;;
75189;SDS011;69198;44.694;37.790;2023-06-22T05:59:32;9.30;;;4.40;;
75189;SDS011;69198;44.694;37.790;2023-06-22T06:00:33;8.02;;;3.67;;
75189;SDS011;69198;44.694;37.790;2023-06-22T06:01:37;8.43;;;4.10;;
75189;SDS011;69198;44.694;37.790;2023-06-22T06:02:40;9.30;;;3.72;;
75189;SDS011;69198;44.694;37.790;2023-06-22T06:03:44;8.55;;;4.15;;
75189;SDS011;69198;44.694;37.790;2023-06-22T06:04:45;8.82;;;4.25;;
75189;SDS011;69198;44.694;37.790;2023-06-22T06:05:46;8.93;;;4.20;;
75189;SDS011;69198;44.694;37.790;2023-06-22T06:06:48;8.82;;;4.10;;
75189;SDS011;69198;44.694;37.790;2023-06-22T06:07:49;8.68;;;3.88;;
75189;SDS011;69198;44.694;37.790;2023-06-22T06:08:50;7.50;;;3.87;;
75189;SDS011;69198;44.694;37.790;2023-06-22T06:09:51;8.00;;;4.18;;
75189;SDS011;69198;44.694;37.790;2023-06-22T06:10:52;8.20;;;4.07;;
75189;SDS011;69198;44.694;37.790;2023-06-22T06:11:54;8.18;;;4.05;;
75189;SDS011;69198;44.694;37.790;2023-06-22T06:12:55;9.45;;;4.32;;
75189;SDS011;69198;44.694;37.790;2023-06-22T06:13:56;8.27;;;3.97;;
75189;SDS011;69198;44.694;37.790;2023-06-22T06:14:57;9.15;;;4.10;;
75189;SDS011;69198;44.694;37.790;2023-06-22T06:15:59;9.52;;;3.67;;